createdAt,value
2022-11-28T00:01:35.534Z,8.55
2022-11-28T00:04:02.395Z,8.32
2022-11-28T00:06:29.609Z,8.53
2022-11-28T00:08:58.592Z,8.51
2022-11-28T00:11:25.512Z,8.33
2022-11-28T00:13:52.405Z,8.54
2022-11-28T00:16:21.690Z,8.54
2022-11-28T00:18:52.200Z,8.52
2022-11-28T00:21:19.144Z,8.55
2022-11-28T00:23:46.269Z,8.55
2022-11-28T00:26:23.258Z,8.38
2022-11-28T00:28:50.233Z,8.54
2022-11-28T00:31:19.051Z,8.55
2022-11-28T00:33:45.976Z,8.55
2022-11-28T00:36:13.333Z,8.56
2022-11-28T00:38:40.474Z,8.55
2022-11-28T00:41:09.865Z,8.39
2022-11-28T00:43:36.764Z,8.55
2022-11-28T00:46:04.035Z,8.55
2022-11-28T00:48:32.360Z,8.57
2022-11-28T00:51:06.432Z,8.56
2022-11-28T00:53:33.283Z,8.55
2022-11-28T00:56:00.146Z,8.53
2022-11-28T00:58:26.981Z,8.55
2022-11-28T01:00:53.889Z,8.56
2022-11-28T01:03:20.794Z,8.58
2022-11-28T01:05:47.753Z,8.59
2022-11-28T01:08:14.731Z,8.59
2022-11-28T01:10:42.329Z,8.58
2022-11-28T01:13:09.846Z,8.58
2022-11-28T01:15:37.215Z,8.59
2022-11-28T01:18:04.149Z,8.59
2022-11-28T01:20:31.022Z,8.60
2022-11-28T01:22:57.887Z,8.60
2022-11-28T01:25:24.769Z,8.58
2022-11-28T01:27:51.639Z,8.53
2022-11-28T01:30:18.627Z,8.57
2022-11-28T01:32:45.421Z,8.58
2022-11-28T01:35:12.253Z,8.58
2022-11-28T01:37:39.391Z,8.41
2022-11-28T01:40:07.955Z,8.58
2022-11-28T01:42:34.790Z,8.58
2022-11-28T01:45:12.413Z,8.58
2022-11-28T01:47:39.317Z,8.56
2022-11-28T01:50:06.787Z,8.55
2022-11-28T01:52:33.646Z,8.57
2022-11-28T01:55:00.572Z,8.41
2022-11-28T01:57:27.509Z,8.54
2022-11-28T02:00:07.891Z,8.55
2022-11-28T02:02:49.317Z,8.55
2022-11-28T02:05:16.502Z,8.53
2022-11-28T02:07:43.484Z,8.50
2022-11-28T02:10:11.785Z,8.52
2022-11-28T02:12:47.051Z,8.52
2022-11-28T02:15:25.760Z,8.52
2022-11-28T02:18:14.812Z,8.47
2022-11-28T02:20:41.568Z,8.48
2022-11-28T02:23:19.133Z,8.48
2022-11-28T02:26:24.837Z,8.46
2022-11-28T02:29:00.952Z,8.44
2022-11-28T02:31:27.822Z,8.43
2022-11-28T02:33:58.946Z,8.43
2022-11-28T02:36:25.725Z,8.45
2022-11-28T02:39:04.552Z,8.46
2022-11-28T02:41:43.937Z,8.43
2022-11-28T02:44:18.967Z,8.42
2022-11-28T02:47:05.941Z,8.42
2022-11-28T02:49:32.711Z,8.39
2022-11-28T02:52:09.832Z,8.40
2022-11-28T02:54:37.216Z,8.38
2022-11-28T02:57:04.294Z,8.40
2022-11-28T02:59:36.890Z,8.43
2022-11-28T03:02:12.465Z,8.42
2022-11-28T03:04:57.687Z,8.41
2022-11-28T03:07:36.604Z,8.44
2022-11-28T03:10:09.191Z,8.47
2022-11-28T03:13:00.259Z,9.07
2022-11-28T03:15:49.539Z,9.54
2022-11-28T03:18:21.744Z,10.05
2022-11-28T03:21:03.176Z,10.52
2022-11-28T03:23:39.065Z,10.99
2022-11-28T03:26:09.787Z,11.43
2022-11-28T03:28:50.307Z,11.86
2022-11-28T03:31:22.734Z,12.10
2022-11-28T03:33:54.634Z,12.63
2022-11-28T03:36:33.191Z,12.99
2022-11-28T03:39:04.103Z,13.38
2022-11-28T03:41:34.695Z,13.73
2022-11-28T03:44:01.594Z,13.85
2022-11-28T03:46:33.183Z,14.38
2022-11-28T03:49:00.097Z,14.68
2022-11-28T03:51:36.919Z,14.99
2022-11-28T03:54:10.854Z,15.30
2022-11-28T03:57:02.968Z,15.57
2022-11-28T03:59:41.535Z,15.87
2022-11-28T04:02:21.901Z,16.14
2022-11-28T04:05:14.340Z,16.44
2022-11-28T04:07:58.538Z,16.69
2022-11-28T04:10:37.467Z,16.93
2022-11-28T04:13:29.414Z,17.22
2022-11-28T04:16:05.752Z,17.44
2022-11-28T04:18:52.941Z,17.69
2022-11-28T04:21:57.723Z,17.92
2022-11-28T04:24:30.647Z,18.10
2022-11-28T04:27:09.618Z,18.36
2022-11-28T04:29:48.268Z,18.50
2022-11-28T04:32:15.301Z,18.43
2022-11-28T04:34:44.272Z,18.96
2022-11-28T04:37:11.232Z,19.18
2022-11-28T04:39:38.177Z,19.39
2022-11-28T04:42:18.251Z,19.60
2022-11-28T04:44:49.393Z,19.80
2022-11-28T04:47:16.307Z,19.84
2022-11-28T04:49:43.238Z,20.14
2022-11-28T04:52:35.503Z,20.15
2022-11-28T04:55:26.675Z,20.35
2022-11-28T04:57:57.651Z,20.63
2022-11-28T05:00:24.796Z,20.62
2022-11-28T05:02:52.673Z,20.77
2022-11-28T05:05:23.191Z,21.10
2022-11-28T05:07:50.408Z,21.26
2022-11-28T05:10:17.647Z,21.36
2022-11-28T05:12:44.909Z,21.53
2022-11-28T05:15:12.048Z,21.64
2022-11-28T05:17:42.189Z,21.75
2022-11-28T05:20:10.098Z,21.94
2022-11-28T05:22:37.157Z,22.07
2022-11-28T05:25:04.479Z,22.20
2022-11-28T05:27:31.564Z,22.33
2022-11-28T05:29:58.616Z,22.45
2022-11-28T05:32:25.695Z,22.55
2022-11-28T05:34:52.757Z,22.32
2022-11-28T05:37:19.991Z,22.74
2022-11-28T05:39:46.962Z,22.83
2022-11-28T05:42:14.135Z,22.93
2022-11-28T05:44:41.101Z,23.05
2022-11-28T05:47:08.094Z,23.15
2022-11-28T05:49:35.208Z,23.25
2022-11-28T05:52:02.677Z,23.35
2022-11-28T05:54:30.641Z,23.46
2022-11-28T05:56:57.671Z,23.56
2022-11-28T05:59:24.786Z,23.67
2022-11-28T06:01:51.876Z,23.73
2022-11-28T06:04:19.018Z,23.81
2022-11-28T06:06:46.192Z,23.90
2022-11-28T06:09:14.135Z,23.98
2022-11-28T06:11:41.132Z,24.04
2022-11-28T06:14:08.364Z,23.95
2022-11-28T06:16:35.485Z,24.20
2022-11-28T06:19:04.471Z,24.25
2022-11-28T06:21:32.168Z,24.29
2022-11-28T06:23:59.773Z,24.41
2022-11-28T06:26:27.364Z,24.48
2022-11-28T06:28:55.701Z,24.49
2022-11-28T06:31:24.519Z,24.51
2022-11-28T06:33:51.898Z,24.47
2022-11-28T06:36:19.400Z,24.42
2022-11-28T06:38:46.641Z,24.38
2022-11-28T06:41:15.944Z,24.33
2022-11-28T06:43:43.238Z,24.26
2022-11-28T06:46:17.498Z,24.18
2022-11-28T06:48:44.913Z,24.09
2022-11-28T06:51:12.593Z,23.98
2022-11-28T06:53:39.710Z,23.97
2022-11-28T06:56:08.078Z,23.98
2022-11-28T06:58:35.315Z,23.99
2022-11-28T07:01:10.142Z,24.00
2022-11-28T07:03:37.861Z,23.69
2022-11-28T07:06:05.536Z,22.79
2022-11-28T07:08:32.733Z,22.38
2022-11-28T07:11:07.766Z,22.56
2022-11-28T07:13:34.806Z,22.64
2022-11-28T07:16:01.921Z,22.78
2022-11-28T07:18:28.925Z,22.74
2022-11-28T07:20:56.072Z,23.07
2022-11-28T07:23:23.030Z,22.99
2022-11-28T07:25:49.945Z,23.19
2022-11-28T07:28:20.583Z,23.26
2022-11-28T07:30:50.102Z,23.37
2022-11-28T07:33:17.021Z,23.44
2022-11-28T07:35:44.008Z,23.28
2022-11-28T07:38:10.958Z,23.25
2022-11-28T07:40:37.901Z,23.32
2022-11-28T07:43:04.758Z,23.33
2022-11-28T07:45:47.434Z,23.31
2022-11-28T07:48:19.758Z,23.20
2022-11-28T07:50:46.778Z,23.21
2022-11-28T07:53:13.700Z,23.22
2022-11-28T07:55:40.757Z,23.45
2022-11-28T07:58:07.626Z,23.57
2022-11-28T08:00:34.558Z,23.66
2022-11-28T08:03:01.556Z,23.38
2022-11-28T08:05:28.466Z,22.94
2022-11-28T08:07:55.449Z,22.18
2022-11-28T08:10:22.501Z,21.79
2022-11-28T08:12:49.690Z,22.02
2022-11-28T08:15:16.696Z,22.24
2022-11-28T08:17:43.714Z,22.48
2022-11-28T08:20:11.046Z,22.60
2022-11-28T08:22:37.979Z,22.73
2022-11-28T08:25:05.259Z,22.77
2022-11-28T08:27:32.613Z,22.87
2022-11-28T08:29:59.482Z,23.01
2022-11-28T08:32:26.443Z,23.19
2022-11-28T08:34:53.353Z,23.30
2022-11-28T08:37:20.237Z,23.36
2022-11-28T08:39:47.169Z,23.36
2022-11-28T08:42:14.177Z,23.47
2022-11-28T08:44:41.090Z,23.53
2022-11-28T08:47:08.091Z,23.72
2022-11-28T08:49:37.144Z,23.65
2022-11-28T08:52:05.114Z,23.68
2022-11-28T08:54:32.197Z,23.96
2022-11-28T08:56:59.212Z,24.02
2022-11-28T08:59:26.088Z,24.01
2022-11-28T09:01:53.963Z,24.09
2022-11-28T09:04:21.705Z,23.99
2022-11-28T09:06:48.773Z,23.36
2022-11-28T09:09:15.820Z,23.43
2022-11-28T09:11:42.753Z,23.44
2022-11-28T09:14:09.767Z,23.10
2022-11-28T09:16:38.641Z,23.03
2022-11-28T09:19:07.013Z,23.21
2022-11-28T09:21:33.933Z,23.48
2022-11-28T09:24:00.939Z,23.77
2022-11-28T09:26:27.978Z,23.87
2022-11-28T09:28:54.853Z,23.92
2022-11-28T09:31:21.998Z,23.96
2022-11-28T09:33:52.085Z,24.07
2022-11-28T09:36:20.541Z,24.24
2022-11-28T09:38:47.578Z,24.30
2022-11-28T09:41:43.456Z,24.21
2022-11-28T09:44:14.795Z,24.44
2022-11-28T09:46:42.831Z,24.67
2022-11-28T09:49:20.611Z,24.79
2022-11-28T09:52:23.375Z,24.67
2022-11-28T09:54:57.162Z,24.82
2022-11-28T09:57:47.858Z,24.98
2022-11-28T10:00:17.385Z,25.06
2022-11-28T10:02:50.527Z,25.14
2022-11-28T10:05:38.427Z,25.10
2022-11-28T10:08:27.166Z,25.29
2022-11-28T10:11:04.363Z,25.16
2022-11-28T10:14:09.212Z,25.30
2022-11-28T10:16:52.048Z,25.33
2022-11-28T10:19:52.323Z,25.50
2022-11-28T10:22:15.942Z,25.43
2022-11-28T10:24:45.982Z,25.58
2022-11-28T10:27:13.637Z,25.60
2022-11-28T10:29:49.613Z,25.67
2022-11-28T10:32:27.207Z,25.79
2022-11-28T10:35:23.857Z,25.80
2022-11-28T10:37:54.414Z,25.80
2022-11-28T10:40:37.999Z,25.83
2022-11-28T10:43:14.261Z,25.55
2022-11-28T10:46:18.915Z,25.41
2022-11-28T10:49:03.332Z,25.51
2022-11-28T10:51:34.156Z,25.62
2022-11-28T10:54:20.201Z,25.80
2022-11-28T10:56:56.749Z,25.92
2022-11-28T10:59:31.748Z,25.96
2022-11-28T11:01:58.954Z,26.08
2022-11-28T11:04:28.960Z,25.92
2022-11-28T11:07:16.130Z,26.34
2022-11-28T11:09:46.558Z,26.42
2022-11-28T11:12:33.732Z,26.47
2022-11-28T11:15:16.493Z,26.54
2022-11-28T11:17:43.647Z,26.58
2022-11-28T11:20:28.594Z,26.51
2022-11-28T11:23:00.514Z,26.52
2022-11-28T11:25:28.587Z,26.56
2022-11-28T11:27:57.481Z,26.67
2022-11-28T11:30:36.498Z,26.75
2022-11-28T11:33:05.107Z,26.81
2022-11-28T11:35:36.144Z,26.99
2022-11-28T11:38:37.791Z,26.94
2022-11-28T11:41:30.968Z,27.17
2022-11-28T11:44:18.655Z,27.04
2022-11-28T11:46:51.577Z,26.73
2022-11-28T11:49:29.428Z,26.74
2022-11-28T11:51:57.320Z,26.82
2022-11-28T11:54:24.247Z,26.94
2022-11-28T11:57:00.722Z,27.08
2022-11-28T11:59:43.813Z,27.19
2022-11-28T12:02:32.820Z,27.24
2022-11-28T12:05:11.214Z,27.31
2022-11-28T12:07:40.925Z,27.43
2022-11-28T12:10:11.387Z,27.35
2022-11-28T12:12:38.489Z,26.92
2022-11-28T12:15:37.973Z,25.95
2022-11-28T12:18:23.778Z,25.19
2022-11-28T12:21:01.221Z,24.85
2022-11-28T12:23:38.004Z,25.02
2022-11-28T12:26:15.471Z,25.18
2022-11-28T12:29:06.313Z,25.35
2022-11-28T12:32:10.737Z,25.58
2022-11-28T12:34:53.369Z,25.84
2022-11-28T12:38:03.048Z,25.99
2022-11-28T12:40:34.501Z,26.10
2022-11-28T12:43:32.021Z,26.34
2022-11-28T12:46:20.493Z,26.46
2022-11-28T12:48:54.207Z,25.84
2022-11-28T12:51:24.052Z,25.58
2022-11-28T12:53:55.268Z,25.71
2022-11-28T12:56:42.162Z,25.98
2022-11-28T12:59:25.931Z,25.92
2022-11-28T13:01:55.230Z,25.74
2022-11-28T13:04:47.144Z,26.00
2022-11-28T13:07:26.195Z,26.22
2022-11-28T13:09:55.796Z,26.28
2022-11-28T13:12:34.744Z,26.00
2022-11-28T13:15:07.413Z,26.23
2022-11-28T13:17:55.783Z,26.42
2022-11-28T13:20:22.842Z,26.52
2022-11-28T13:23:06.722Z,26.59
2022-11-28T13:25:59.947Z,26.70
2022-11-28T13:28:33.800Z,26.86
2022-11-28T13:31:25.265Z,26.94
2022-11-28T13:33:53.538Z,26.80
2022-11-28T13:39:46.629Z,27.06
2022-11-28T13:43:02.512Z,27.23
2022-11-28T13:51:32.755Z,27.15
2022-11-28T13:54:19.337Z,27.14
2022-11-28T13:56:47.990Z,27.17
2022-11-28T13:59:21.818Z,27.29
2022-11-28T14:01:56.522Z,27.35
2022-11-28T14:04:23.589Z,27.14
2022-11-28T14:07:03.945Z,27.40
2022-11-28T14:09:49.446Z,26.96
2022-11-28T14:12:31.432Z,26.76
2022-11-28T14:15:23.346Z,26.82
2022-11-28T14:21:16.494Z,27.18
2022-11-28T14:23:53.635Z,26.50
2022-11-28T14:26:39.564Z,25.21
2022-11-28T14:29:20.343Z,24.20
2022-11-28T14:32:06.611Z,24.18
2022-11-28T14:34:43.179Z,24.30
2022-11-28T14:37:19.796Z,24.73
2022-11-28T14:39:48.604Z,24.84
2022-11-28T14:42:36.850Z,24.90
2022-11-28T14:45:30.810Z,24.95
2022-11-28T14:48:07.247Z,24.87
2022-11-28T14:50:37.029Z,24.83
2022-11-28T14:53:39.013Z,24.79
2022-11-28T14:56:23.100Z,24.69
2022-11-28T14:58:50.529Z,24.54
2022-11-28T15:01:46.168Z,24.46
2022-11-28T15:04:13.048Z,24.36
2022-11-28T15:06:40.608Z,24.25
2022-11-28T15:09:14.079Z,23.86
2022-11-28T15:11:56.290Z,24.00
2022-11-28T15:14:23.681Z,23.87
2022-11-28T15:16:55.197Z,23.75
2022-11-28T15:19:37.124Z,23.63
2022-11-28T15:22:04.483Z,23.49
2022-11-28T15:24:34.517Z,23.35
2022-11-28T15:27:07.370Z,23.22
2022-11-28T15:29:35.226Z,23.10
2022-11-28T15:32:03.115Z,22.96
2022-11-28T15:34:32.005Z,22.83
2022-11-28T15:37:06.617Z,22.63
2022-11-28T15:39:36.875Z,22.43
2022-11-28T15:42:04.402Z,22.28
2022-11-28T15:44:32.220Z,22.14
2022-11-28T15:46:59.093Z,22.03
2022-11-28T15:49:33.361Z,21.94
2022-11-28T15:52:02.442Z,21.76
2022-11-28T15:54:33.777Z,21.67
2022-11-28T15:57:00.701Z,21.68
2022-11-28T15:59:28.140Z,21.55
2022-11-28T16:01:59.213Z,21.43
2022-11-28T16:04:26.372Z,21.26
2022-11-28T16:06:53.482Z,21.13
2022-11-28T16:09:20.275Z,21.03
2022-11-28T16:11:51.389Z,20.90
2022-11-28T16:14:31.499Z,20.74
2022-11-28T16:16:58.815Z,20.64
2022-11-28T16:19:28.106Z,20.54
2022-11-28T16:22:00.189Z,20.40
2022-11-28T16:24:33.681Z,20.28
2022-11-28T16:27:05.101Z,20.17
2022-11-28T16:29:35.002Z,20.07
2022-11-28T16:32:25.963Z,19.97
2022-11-28T16:34:54.114Z,19.45
2022-11-28T16:37:25.361Z,19.17
2022-11-28T16:40:06.054Z,18.87
2022-11-28T16:42:33.764Z,18.86
2022-11-28T16:45:16.833Z,18.75
2022-11-28T16:47:43.683Z,19.14
2022-11-28T16:50:15.559Z,19.25
2022-11-28T16:52:55.607Z,19.08
2022-11-28T16:55:28.501Z,19.06
2022-11-28T16:58:21.650Z,18.41
2022-11-28T17:00:58.214Z,18.72
2022-11-28T17:03:46.723Z,18.68
2022-11-28T17:06:16.652Z,18.01
2022-11-28T17:08:43.651Z,18.43
2022-11-28T17:11:11.136Z,17.85
2022-11-28T17:13:38.010Z,17.68
2022-11-28T17:16:05.144Z,17.55
2022-11-28T17:18:32.039Z,17.40
2022-11-28T17:20:59.942Z,17.27
2022-11-28T17:23:26.950Z,17.16
2022-11-28T17:25:54.004Z,17.21
2022-11-28T17:28:24.174Z,17.59
2022-11-28T17:30:53.403Z,17.59
2022-11-28T17:33:20.406Z,17.54
2022-11-28T17:35:48.350Z,16.96
2022-11-28T17:38:15.659Z,16.70
2022-11-28T17:40:44.662Z,16.53
2022-11-28T17:43:18.497Z,16.41
2022-11-28T17:45:45.720Z,16.68
2022-11-28T17:48:16.284Z,16.85
2022-11-28T17:50:44.893Z,16.89
2022-11-28T17:53:13.916Z,16.69
2022-11-28T17:55:42.255Z,16.75
2022-11-28T17:58:17.384Z,16.41
2022-11-28T18:00:44.700Z,16.57
2022-11-28T18:03:11.686Z,16.41
2022-11-28T18:05:43.228Z,16.36
2022-11-28T18:08:10.078Z,16.15
2022-11-28T18:10:37.200Z,15.83
2022-11-28T18:13:04.614Z,15.56
2022-11-28T18:15:32.638Z,15.43
2022-11-28T18:17:59.605Z,15.29
2022-11-28T18:20:28.674Z,15.81
2022-11-28T18:22:56.597Z,15.87
2022-11-28T18:25:23.614Z,15.88
2022-11-28T18:27:50.656Z,15.74
2022-11-28T18:30:17.838Z,15.80
2022-11-28T18:32:45.688Z,15.45
2022-11-28T18:35:12.888Z,15.15
2022-11-28T18:37:39.869Z,15.55
2022-11-28T18:40:09.358Z,15.46
2022-11-28T18:42:37.321Z,15.34
2022-11-28T18:45:04.596Z,15.25
2022-11-28T18:47:31.430Z,15.24
2022-11-28T18:49:58.973Z,15.17
2022-11-28T18:52:25.823Z,14.55
2022-11-28T18:54:52.666Z,14.68
2022-11-28T18:57:19.579Z,14.81
2022-11-28T18:59:54.327Z,14.75
2022-11-28T19:02:22.386Z,14.47
2022-11-28T19:04:49.276Z,14.52
2022-11-28T19:07:16.154Z,14.38
2022-11-28T19:09:45.196Z,14.27
2022-11-28T19:12:12.299Z,14.09
2022-11-28T19:14:39.473Z,14.01
2022-11-28T19:17:08.520Z,14.03
2022-11-28T19:19:37.411Z,13.98
2022-11-28T19:22:04.279Z,13.86
2022-11-28T19:24:31.998Z,13.80
2022-11-28T19:26:59.086Z,13.76
2022-11-28T19:29:26.429Z,13.65
2022-11-28T19:31:53.414Z,13.63
2022-11-28T19:34:20.393Z,13.71
2022-11-28T19:36:50.123Z,13.72
2022-11-28T19:39:24.529Z,13.67
2022-11-28T19:41:52.692Z,13.55
2022-11-28T19:44:21.064Z,13.48
2022-11-28T19:46:48.353Z,13.57
2022-11-28T19:49:17.976Z,13.11
2022-11-28T19:51:45.490Z,13.19
2022-11-28T19:54:12.504Z,13.31
2022-11-28T19:56:39.541Z,13.24
2022-11-28T19:59:06.978Z,13.15
2022-11-28T20:01:34.693Z,13.01
2022-11-28T20:04:01.650Z,12.90
2022-11-28T20:06:30.692Z,12.86
2022-11-28T20:08:59.768Z,12.77
2022-11-28T20:11:28.443Z,12.71
2022-11-28T20:14:06.420Z,12.59
2022-11-28T20:16:34.797Z,12.49
2022-11-28T20:19:01.960Z,12.42
2022-11-28T20:21:29.003Z,12.37
2022-11-28T20:23:57.973Z,12.35
2022-11-28T20:26:26.797Z,12.22
2022-11-28T20:28:55.346Z,12.11
2022-11-28T20:31:30.743Z,11.80
2022-11-28T20:33:58.689Z,12.02
2022-11-28T20:36:26.252Z,11.77
2022-11-28T20:38:53.397Z,11.75
2022-11-28T20:41:21.003Z,11.78
2022-11-28T20:43:47.992Z,11.65
2022-11-28T20:46:19.266Z,11.73
2022-11-28T20:48:46.495Z,11.65
2022-11-28T20:51:18.164Z,11.68
2022-11-28T20:53:45.144Z,11.59
2022-11-28T20:56:13.984Z,11.56
2022-11-28T20:58:40.947Z,11.49
2022-11-28T21:01:08.188Z,11.46
2022-11-28T21:03:35.252Z,11.49
2022-11-28T21:06:02.164Z,11.37
2022-11-28T21:08:33.708Z,11.37
2022-11-28T21:11:07.392Z,11.34
2022-11-28T21:13:34.388Z,11.31
2022-11-28T21:16:06.198Z,11.20
2022-11-28T21:18:33.111Z,11.11
2022-11-28T21:20:59.937Z,11.10
2022-11-28T21:23:26.759Z,11.01
2022-11-28T21:25:53.633Z,10.89
2022-11-28T21:28:20.453Z,10.83
2022-11-28T21:30:47.358Z,10.84
2022-11-28T21:33:14.281Z,10.73
2022-11-28T21:35:41.131Z,10.54
2022-11-28T21:38:08.248Z,10.49
2022-11-28T21:40:35.174Z,10.47
2022-11-28T21:43:02.036Z,10.39
2022-11-28T21:45:28.938Z,10.32
2022-11-28T21:47:55.919Z,10.29
2022-11-28T21:50:22.896Z,10.39
2022-11-28T21:52:49.728Z,10.34
2022-11-28T21:55:16.566Z,10.28
2022-11-28T21:57:43.411Z,10.22
2022-11-28T22:00:25.666Z,10.04
2022-11-28T22:03:04.014Z,10.12
2022-11-28T22:05:33.869Z,10.13
2022-11-28T22:08:01.201Z,9.87
2022-11-28T22:10:28.315Z,10.02
2022-11-28T22:12:55.181Z,9.95
2022-11-28T22:15:22.475Z,9.92
2022-11-28T22:17:49.405Z,9.86
2022-11-28T22:20:16.353Z,9.82
2022-11-28T22:22:43.279Z,9.78
2022-11-28T22:25:10.243Z,9.58
2022-11-28T22:27:38.119Z,9.63
2022-11-28T22:30:06.198Z,9.53
2022-11-28T22:32:33.177Z,9.47
2022-11-28T22:35:00.207Z,9.44
2022-11-28T22:37:27.349Z,9.42
2022-11-28T22:39:54.334Z,9.41
2022-11-28T22:42:21.163Z,9.45
2022-11-28T22:44:48.091Z,9.45
2022-11-28T22:47:14.960Z,9.39
2022-11-28T22:49:42.350Z,9.37
2022-11-28T22:52:09.233Z,9.17
2022-11-28T22:54:36.510Z,9.30
2022-11-28T22:57:03.395Z,9.30
2022-11-28T22:59:33.710Z,9.30
2022-11-28T23:02:01.048Z,9.24
2022-11-28T23:04:28.047Z,9.20
2022-11-28T23:06:54.958Z,9.11
2022-11-28T23:09:22.530Z,9.27
2022-11-28T23:11:50.085Z,9.32
2022-11-28T23:14:17.474Z,9.21
2022-11-28T23:16:45.059Z,9.18
2022-11-28T23:19:14.821Z,9.14
2022-11-28T23:21:43.328Z,9.12
2022-11-28T23:24:20.457Z,9.04
2022-11-28T23:26:48.625Z,9.04
2022-11-28T23:29:15.910Z,8.99
2022-11-28T23:31:43.081Z,8.93
2022-11-28T23:34:10.840Z,8.89
2022-11-28T23:36:43.197Z,8.85
2022-11-28T23:39:21.389Z,8.77
2022-11-28T23:41:48.488Z,8.73
2022-11-28T23:44:15.912Z,8.70
2022-11-28T23:46:43.000Z,8.43
2022-11-28T23:49:09.969Z,8.38
2022-11-28T23:51:37.055Z,8.41
2022-11-28T23:54:04.208Z,8.34
2022-11-28T23:56:33.028Z,8.40
2022-11-28T23:59:01.129Z,8.43
